Time;durP1;ratioP1;P1;durP2;ratioP2;P2;SDS_P1;SDS_P2;PMS_P1;PMS_P2;Temp;Humidity;BMP_temperature;BMP_pressure;BME280_temperature;BME280_humidity;BME280_pressure;Samples;Min_cycle;Max_cycle;Signal;HPM_P1;HPM_P2
2023/08/24 00:00:46;;;;;;;8.93;4.93;;;;;;;22.19;83.37;99925.03;12238068;19;19999;-85
2023/08/24 00:04:48;;;;;;;6.20;5.25;;;;;;;22.14;85.07;99927.09;12237053;19;20010;-85
2023/08/24 00:08:50;;;;;;;6.70;5.10;;;;;;;22.11;85.89;99930.56;12211141;19;20556;-85
2023/08/24 00:12:52;;;;;;;10.23;4.95;;;;;;;22.00;86.55;99930.84;12228379;19;20010;-85
2023/08/24 00:16:53;;;;;;;7.20;4.93;;;;;;;21.87;88.53;99926.16;12231068;19;20014;-85
2023/08/24 00:20:56;;;;;;;8.50;6.77;;;;;;;21.78;90.90;99934.53;12209278;19;20011;-85
2023/08/24 00:24:58;;;;;;;9.15;6.22;;;;;;;21.74;90.85;99925.09;12222152;19;20015;-85
2023/08/24 00:28:59;;;;;;;7.17;5.27;;;;;;;21.67;90.48;99929.53;12221702;19;20064;-86
2023/08/24 00:33:02;;;;;;;6.43;5.30;;;;;;;21.58;91.69;99919.06;12192415;19;20011;-84
2023/08/24 00:37:04;;;;;;;10.37;6.37;;;;;;;21.54;93.18;99911.63;12221519;19;20045;-85
2023/08/24 00:41:06;;;;;;;8.43;6.70;;;;;;;21.49;94.68;99920.19;12201281;19;20033;-85
2023/08/24 00:45:09;;;;;;;8.63;5.57;;;;;;;21.42;95.48;99905.75;12220656;19;20259;-85
2023/08/24 00:49:11;;;;;;;8.15;5.85;;;;;;;21.43;96.55;99919.47;12219765;19;20007;-86
2023/08/24 00:53:14;;;;;;;9.27;5.45;;;;;;;21.42;97.56;99919.78;12194449;19;20026;-85
2023/08/24 00:57:16;;;;;;;8.80;5.50;;;;;;;21.45;98.27;99924.78;12217967;19;20027;-85
2023/08/24 01:01:19;;;;;;;7.53;5.70;;;;;;;21.46;98.00;99937.63;12216868;19;20015;-85
2023/08/24 01:05:22;;;;;;;11.10;5.10;;;;;;;21.53;97.54;99947.22;12193270;19;20004;-85
2023/08/24 01:09:24;;;;;;;7.70;5.23;;;;;;;21.58;97.66;99946.28;12216289;19;20018;-84
2023/08/24 01:13:43;;;;;;;7.03;5.35;;;;;;;21.59;97.81;99953.53;12212301;19;20039;-84
2023/08/24 01:17:47;;;;;;;10.07;5.22;;;;;;;21.47;98.00;99945.72;12197129;19;20016;-85
2023/08/24 01:21:50;;;;;;;7.97;6.43;;;;;;;21.37;99.86;99941.19;12217788;19;20014;-86
2023/08/24 01:25:53;;;;;;;;;;;;;;;21.27;100.00;99941.44;12215882;19;20027;-85
2023/08/24 01:29:56;;;;;;;6.65;5.30;;;;;;;21.18;100.00;99937.75;12195792;19;19926;-85
2023/08/24 01:34:01;;;;;;;8.57;5.60;;;;;;;21.09;100.00;99934.88;12216796;19;20119;-84
2023/08/24 01:38:04;;;;;;;11.82;6.45;;;;;;;21.06;100.00;99926.25;12199862;19;20017;-85
2023/08/24 01:42:10;;;;;;;8.35;5.53;;;;;;;21.04;100.00;99926.56;12220725;19;20002;-85
2023/08/24 01:46:15;;;;;;;9.65;6.40;;;;;;;21.00;100.00;99928.38;12215263;19;20031;-85
2023/08/24 01:50:17;;;;;;;7.53;5.90;;;;;;;20.97;100.00;99920.59;12196966;19;20018;-86
2023/08/24 01:54:19;;;;;;;12.00;5.50;;;;;;;20.93;100.00;99923.19;12217053;19;20020;-85
2023/08/24 01:58:21;;;;;;;10.70;5.87;;;;;;;20.86;100.00;99921.97;12217318;19;20010;-85
2023/08/24 02:02:24;;;;;;;8.07;5.80;;;;;;;20.83;100.00;99915.03;12193390;19;20023;-85
2023/08/24 02:06:27;;;;;;;10.93;5.95;;;;;;;20.83;100.00;99908.59;12214108;19;20028;-86
2023/08/24 02:10:28;;;;;;;11.77;5.90;;;;;;;20.84;100.00;99902.66;12211978;19;20015;-85
2023/08/24 02:14:31;;;;;;;8.63;6.50;;;;;;;20.88;100.00;99900.06;12191209;19;20007;-85
2023/08/24 02:18:33;;;;;;;8.27;5.28;;;;;;;20.96;100.00;99890.09;12216850;19;20056;-85
2023/08/24 02:22:35;;;;;;;10.52;6.30;;;;;;;21.06;100.00;99901.03;12216541;19;20003;-85
2023/08/24 02:26:37;;;;;;;6.90;5.57;;;;;;;21.12;100.00;99888.56;12192234;19;20022;-85
2023/08/24 02:30:39;;;;;;;8.57;5.68;;;;;;;21.19;100.00;99886.16;12214063;19;20006;-85
2023/08/24 02:34:41;;;;;;;12.15;6.75;;;;;;;21.30;100.00;99883.91;12211928;19;20010;-85
2023/08/24 02:38:42;;;;;;;12.40;6.05;;;;;;;21.36;100.00;99883.50;12202018;19;20084;-85
2023/08/24 02:42:44;;;;;;;8.40;5.27;;;;;;;21.45;100.00;99868.72;12228081;19;20014;-85
2023/08/24 02:46:48;;;;;;;8.80;5.75;;;;;;;21.53;100.00;99865.09;12225904;19;20372;-85
2023/08/24 02:50:51;;;;;;;7.45;5.15;;;;;;;21.57;100.00;99860.53;12206108;19;20029;-85
2023/08/24 02:54:53;;;;;;;12.68;5.43;;;;;;;21.58;100.00;99871.41;12225847;19;20418;-86
2023/08/24 02:58:55;;;;;;;15.70;6.33;;;;;;;21.56;100.00;99875.69;12226412;19;20007;-84
2023/08/24 03:02:56;;;;;;;11.13;5.38;;;;;;;21.46;100.00;99878.75;12205261;19;20084;-85
2023/08/24 03:06:58;;;;;;;6.50;5.27;;;;;;;21.41;100.00;99882.53;12226365;19;20059;-85
2023/08/24 03:11:01;;;;;;;8.38;5.13;;;;;;;21.44;100.00;99872.66;12225666;19;20380;-85
2023/08/24 03:15:04;;;;;;;9.10;5.60;;;;;;;21.45;100.00;99865.91;12202416;19;20416;-85
2023/08/24 03:19:07;;;;;;;8.45;6.15;;;;;;;21.43;100.00;99866.22;12226502;19;20006;-85
2023/08/24 03:23:09;;;;;;;11.38;5.78;;;;;;;21.48;100.00;99856.84;12206163;19;20022;-85
2023/08/24 03:27:10;;;;;;;8.33;5.77;;;;;;;21.49;100.00;99833.28;12248191;19;20006;-85
2023/08/24 03:31:12;;;;;;;8.47;5.47;;;;;;;21.44;100.00;99825.00;12272997;19;20010;-86
2023/08/24 03:35:14;;;;;;;8.15;5.97;;;;;;;21.47;100.00;99815.94;12249541;19;20275;-86
2023/08/24 03:39:17;;;;;;;7.63;5.47;;;;;;;21.55;99.70;99793.53;12271361;19;20021;-86
2023/08/24 03:43:18;;;;;;;9.43;6.03;;;;;;;21.62;99.41;99776.25;12230713;19;20014;-85
2023/08/24 03:47:20;;;;;;;6.93;4.83;;;;;;;21.67;97.58;99787.31;12208909;19;20658;-85
2023/08/24 03:51:22;;;;;;;7.47;4.78;;;;;;;21.73;95.37;99780.41;12226190;19;20014;-85
2023/08/24 03:55:25;;;;;;;7.45;4.97;;;;;;;21.82;94.14;99778.47;12217244;19;20455;-85
2023/08/24 03:59:28;;;;;;;9.35;5.00;;;;;;;21.87;94.00;99774.69;12195148;19;20014;-86
2023/08/24 04:03:29;;;;;;;9.67;4.90;;;;;;;21.87;94.15;99763.47;12223036;19;20018;-85
2023/08/24 04:07:31;;;;;;;8.38;4.93;;;;;;;21.87;93.44;99774.69;12220041;19;20086;-85
2023/08/24 04:11:34;;;;;;;6.63;5.63;;;;;;;21.89;92.59;99761.13;12197919;19;20011;-86
2023/08/24 04:15:36;;;;;;;6.40;4.27;;;;;;;21.92;90.84;99765.28;12216647;19;20067;-86
2023/08/24 04:19:38;;;;;;;7.00;4.90;;;;;;;22.00;87.54;99758.88;12219852;19;20119;-85
2023/08/24 04:23:44;;;;;;;6.20;4.20;;;;;;;22.08;86.74;99764.50;12202373;19;20007;-85
2023/08/24 04:27:46;;;;;;;6.43;4.00;;;;;;;22.14;85.60;99767.97;12217687;19;20014;-85
2023/08/24 04:31:48;;;;;;;8.20;4.07;;;;;;;22.18;84.06;99787.81;12219704;19;20497;-85
2023/08/24 04:35:50;;;;;;;6.65;4.07;;;;;;;22.26;82.01;99785.00;12195893;19;20988;-85
2023/08/24 04:39:52;;;;;;;5.78;4.20;;;;;;;22.32;81.09;99773.63;12220195;19;20023;-86
2023/08/24 04:43:54;;;;;;;7.30;4.30;;;;;;;22.41;81.09;99783.72;12221355;19;20010;-86
2023/08/24 04:47:56;;;;;;;7.32;4.38;;;;;;;22.41;80.95;99775.28;12199694;19;20023;-85
2023/08/24 04:51:58;;;;;;;7.00;3.80;;;;;;;22.38;80.39;99756.28;12221106;19;20010;-85
2023/08/24 04:56:00;;;;;;;6.75;3.88;;;;;;;22.41;79.59;99780.06;12220658;19;20028;-86
2023/08/24 05:00:05;;;;;;;6.17;3.73;;;;;;;22.44;78.18;99773.81;12201347;19;20864;-85
2023/08/24 05:04:08;;;;;;;6.25;3.70;;;;;;;22.52;77.82;99803.88;12221156;19;20098;-86
2023/08/24 05:08:10;;;;;;;7.32;4.10;;;;;;;22.49;78.20;99827.00;12197883;19;20014;-86
2023/08/24 05:12:14;;;;;;;6.68;4.13;;;;;;;22.41;79.31;99848.28;12218619;19;20022;-86
2023/08/24 05:16:16;;;;;;;6.13;4.37;;;;;;;22.43;80.86;99860.03;12219478;19;20018;-85
2023/08/24 05:20:18;;;;;;;6.78;3.90;;;;;;;22.40;84.26;99899.13;12197710;19;20011;-85
2023/08/24 05:24:20;;;;;;;6.70;4.38;;;;;;;22.32;84.26;99933.66;12216952;19;20014;-85
2023/08/24 05:28:22;;;;;;;;;;;;;;;22.21;84.79;99956.38;12218975;19;20014;-85
2023/08/24 05:32:24;;;;;;;9.70;5.25;;;;;;;22.11;86.88;99973.47;12195620;19;20565;-85
2023/08/24 05:36:26;;;;;;;7.15;5.32;;;;;;;22.02;90.75;99967.00;12216018;19;20011;-86
2023/08/24 05:40:29;;;;;;;10.90;6.32;;;;;;;21.91;91.30;99974.03;12218793;19;20098;-85
2023/08/24 05:44:30;;;;;;;16.03;6.70;;;;;;;21.77;93.31;99972.16;12197142;19;20051;-86
2023/08/24 05:48:36;;;;;;;9.60;6.18;;;;;;;21.72;95.09;99968.66;12219021;19;20364;-86
2023/08/24 05:52:38;;;;;;;8.93;5.97;;;;;;;21.71;94.52;99995.84;12218474;19;20016;-85
2023/08/24 05:56:40;;;;;;;7.87;6.23;;;;;;;21.75;95.19;99957.63;12191784;19;20025;-86
2023/08/24 06:00:41;;;;;;;7.57;5.63;;;;;;;21.91;96.77;99943.19;12212787;19;20018;-86
2023/08/24 06:04:43;;;;;;;6.80;5.25;;;;;;;22.12;94.15;99963.91;12213998;19;20046;-85
2023/08/24 06:08:45;;;;;;;10.37;5.63;;;;;;;22.28;93.37;99987.63;12194583;19;20537;-85
2023/08/24 06:12:47;;;;;;;10.50;6.30;;;;;;;22.29;94.09;99978.03;12206287;19;20026;-85
2023/08/24 06:16:48;;;;;;;10.38;6.72;;;;;;;22.34;94.19;99946.22;12207081;19;20084;-85
2023/08/24 06:20:51;;;;;;;8.65;6.43;;;;;;;22.37;93.12;99955.94;12186922;19;20077;-85
2023/08/24 06:24:54;;;;;;;11.63;6.18;;;;;;;22.33;93.15;99960.56;12203941;19;20078;-85
2023/08/24 06:28:56;;;;;;;12.40;7.25;;;;;;;22.48;93.05;99957.28;12206311;19;20007;-85
2023/08/24 06:32:58;;;;;;;8.83;6.13;;;;;;;22.55;91.69;99954.00;12181040;19;20557;-85
2023/08/24 06:37:03;;;;;;;10.88;6.47;;;;;;;22.49;93.02;99926.09;12205848;19;20010;-84
2023/08/24 06:41:05;;;;;;;12.15;6.20;;;;;;;22.47;93.68;99879.84;12191216;19;20039;-85
2023/08/24 06:45:09;;;;;;;7.65;6.15;;;;;;;22.39;95.33;99818.88;12218953;19;20007;-85
2023/08/24 06:49:12;;;;;;;7.43;5.15;;;;;;;22.24;94.36;99804.16;12208993;19;20013;-85
2023/08/24 06:53:14;;;;;;;7.25;4.57;;;;;;;22.21;91.29;99891.00;12185449;19;20035;-84
2023/08/24 06:57:16;;;;;;;6.20;4.32;;;;;;;22.23;91.48;99888.69;12210394;19;20037;-84
2023/08/24 07:01:18;;;;;;;7.10;4.97;;;;;;;22.32;92.24;99871.88;12210042;19;20018;-86
2023/08/24 07:05:21;;;;;;;11.48;4.07;;;;;;;22.42;91.81;99879.97;12185813;19;20490;-86
2023/08/24 07:09:22;;;;;;;6.60;4.33;;;;;;;22.56;89.96;99858.22;12208832;19;20054;-85
2023/08/24 07:13:26;;;;;;;7.15;4.43;;;;;;;22.83;88.29;99834.59;12206694;19;20018;-85
2023/08/24 07:17:28;;;;;;;10.75;4.50;;;;;;;23.15;86.05;99836.06;12186420;19;20011;-85
2023/08/24 07:21:30;;;;;;;7.00;4.43;;;;;;;23.47;84.43;99833.00;12209722;19;20019;-86
2023/08/24 07:25:32;;;;;;;6.00;4.83;;;;;;;23.72;84.03;99831.31;12214550;19;19999;-85
2023/08/24 07:29:35;;;;;;;8.40;5.22;;;;;;;23.89;81.94;99831.22;12196271;19;20023;-85
2023/08/24 07:33:40;;;;;;;7.78;4.90;;;;;;;24.10;80.41;99846.19;12216606;19;20663;-85
2023/08/24 07:37:42;;;;;;;7.40;5.03;;;;;;;24.39;80.09;99861.41;12219909;19;20200;-86
2023/08/24 07:41:45;;;;;;;7.22;4.93;;;;;;;24.64;77.65;99895.41;12199822;19;20017;-85
2023/08/24 07:45:46;;;;;;;7.45;4.60;;;;;;;24.54;78.42;99899.47;12213036;19;20010;-85
2023/08/24 07:49:49;;;;;;;6.93;4.75;;;;;;;24.48;79.78;99884.75;12216952;19;20346;-85
2023/08/24 07:53:52;;;;;;;7.50;4.40;;;;;;;24.54;78.25;99872.09;12193924;19;20387;-86
2023/08/24 07:57:53;;;;;;;10.07;5.22;;;;;;;24.82;77.87;99868.75;12215992;19;20265;-85
2023/08/24 08:01:56;;;;;;;8.80;5.20;;;;;;;24.97;76.65;99847.56;12215911;19;20474;-84
2023/08/24 08:05:58;;;;;;;8.97;5.00;;;;;;;24.96;76.56;99798.00;12191488;19;20572;-85
2023/08/24 08:10:00;;;;;;;6.00;5.00;;;;;;;24.81;76.66;99761.97;12214238;19;20341;-85
2023/08/24 08:14:02;;;;;;;5.57;4.47;;;;;;;24.65;76.80;99744.91;12204660;19;20275;-84
2023/08/24 08:18:04;;;;;;;8.93;5.57;;;;;;;24.70;75.18;99741.88;12216979;19;20392;-85
2023/08/24 08:22:06;;;;;;;6.20;4.40;;;;;;;24.80;74.24;99738.63;12218231;19;20260;-84
2023/08/24 08:26:12;;;;;;;8.75;4.32;;;;;;;24.99;74.29;99736.09;12189528;19;20038;-85
2023/08/24 08:30:15;;;;;;;8.90;4.68;;;;;;;25.20;74.35;99710.69;12213339;19;20018;-84
2023/08/24 08:34:19;;;;;;;7.15;5.45;;;;;;;25.36;74.11;99676.97;12209687;19;20014;-84
2023/08/24 08:38:25;;;;;;;7.78;5.20;;;;;;;25.28;74.78;99699.63;12193024;19;26858;-84
2023/08/24 08:42:30;;;;;;;5.57;4.35;;;;;;;25.33;75.41;99702.25;12215542;19;20035;-85
2023/08/24 08:46:32;;;;;;;7.93;5.15;;;;;;;25.35;75.22;99734.56;12209712;19;20718;-84
2023/08/24 08:50:35;;;;;;;;;;;;;;;25.40;75.11;99742.81;12191016;19;20011;-85
2023/08/24 08:54:37;;;;;;;8.93;4.82;;;;;;;25.61;74.57;99755.94;12209621;19;19946;-84
2023/08/24 08:58:43;;;;;;;6.45;4.82;;;;;;;25.78;74.88;99747.25;12214692;19;20406;-86
2023/08/24 09:02:47;;;;;;;9.88;4.25;;;;;;;25.91;72.18;99743.28;12189182;19;20119;-85
2023/08/24 09:06:49;;;;;;;6.40;4.57;;;;;;;25.93;72.50;99742.91;12210855;19;20375;-85
2023/08/24 09:10:51;;;;;;;8.35;4.97;;;;;;;26.01;75.26;99732.69;12211147;19;20006;-85
2023/08/24 09:14:52;;;;;;;10.07;4.50;;;;;;;26.14;75.40;99723.00;12186850;19;20095;-85
2023/08/24 09:18:54;;;;;;;9.80;4.70;;;;;;;26.34;77.57;99730.47;12210942;19;20055;-85
2023/08/24 09:22:57;;;;;;;5.95;4.35;;;;;;;26.68;78.10;99721.78;12214294;19;22127;-85
2023/08/24 09:27:00;;;;;;;9.43;4.40;;;;;;;26.97;74.93;99704.44;12187393;19;20085;-85
2023/08/24 09:31:03;;;;;;;5.40;3.72;;;;;;;27.04;70.40;99686.84;12210678;19;20010;-86
2023/08/24 09:35:09;;;;;;;7.07;3.92;;;;;;;27.45;67.77;99657.19;12186754;19;20474;-85
2023/08/24 09:39:11;;;;;;;3.95;3.28;;;;;;;27.76;64.14;99652.66;12210717;19;20003;-85
2023/08/24 09:43:13;;;;;;;8.48;3.95;;;;;;;28.13;62.85;99664.44;12211052;19;20073;-85
2023/08/24 09:47:15;;;;;;;;;;;;;;;28.32;63.10;99677.00;12187682;19;20021;-85
2023/08/24 09:51:18;;;;;;;9.15;3.80;;;;;;;28.73;61.68;99646.22;12209577;19;19915;-83
2023/08/24 09:55:23;;;;;;;5.57;4.13;;;;;;;29.14;59.15;99638.88;12207185;19;20026;-82
2023/08/24 09:59:27;;;;;;;6.75;4.35;;;;;;;29.30;58.07;99633.91;12188347;19;20011;-82
2023/08/24 10:03:32;;;;;;;6.45;3.33;;;;;;;29.44;56.51;99638.97;12208916;19;20010;-84
2023/08/24 10:07:39;;;;;;;6.63;3.40;;;;;;;29.70;53.90;99617.50;12212251;19;20033;-83
2023/08/24 10:11:52;;;;;;;5.03;3.28;;;;;;;30.02;53.35;99625.66;12187272;19;20010;-84
2023/08/24 10:15:56;;;;;;;9.73;3.72;;;;;;;30.16;53.67;99620.13;12204538;19;20006;-84
2023/08/24 10:20:01;;;;;;;5.15;3.38;;;;;;;30.36;52.79;99615.94;12207275;19;20006;-85
2023/08/24 10:24:05;;;;;;;7.78;3.55;;;;;;;30.38;51.21;99601.34;12185716;19;20007;-84
2023/08/24 10:28:07;;;;;;;4.80;3.53;;;;;;;30.73;50.79;99606.59;12206572;19;20017;-84
2023/08/24 10:32:11;;;;;;;10.52;3.70;;;;;;;31.04;49.28;99610.16;12183288;19;20006;-83
2023/08/24 10:36:14;;;;;;;5.88;2.88;;;;;;;31.30;48.52;99601.44;12202082;19;20010;-83
2023/08/24 10:40:31;;;;;;;5.53;3.33;;;;;;;31.36;48.36;99590.53;12206737;19;20017;-83
2023/08/24 10:44:37;;;;;;;8.18;3.50;;;;;;;31.69;49.07;99583.81;12183705;19;20013;-83
2023/08/24 10:48:44;;;;;;;5.65;3.20;;;;;;;31.99;47.22;99582.75;12206092;19;20006;-84
2023/08/24 10:52:46;;;;;;;9.60;3.55;;;;;;;32.34;45.50;99558.47;12204448;19;20090;-85
2023/08/24 10:56:56;;;;;;;7.50;3.58;;;;;;;32.49;45.04;99562.19;12181599;19;20482;-85
2023/08/24 11:01:02;;;;;;;8.20;3.50;;;;;;;32.63;45.74;99557.31;12218427;19;20014;-85
2023/08/24 11:05:16;;;;;;;8.70;3.58;;;;;;;32.81;45.84;99559.34;12192728;19;20024;-85
2023/08/24 11:09:18;;;;;;;6.00;3.80;;;;;;;33.03;44.82;99551.66;12215293;19;20007;-84
2023/08/24 11:13:22;;;;;;;5.20;3.80;;;;;;;33.27;45.36;99541.44;12212096;19;20010;-84
2023/08/24 11:17:31;;;;;;;4.65;3.35;;;;;;;33.39;44.70;99560.97;12192179;19;20011;-84
2023/08/24 11:21:34;;;;;;;5.40;3.53;;;;;;;33.31;43.88;99557.31;12220446;19;20494;-84
2023/08/24 11:25:36;;;;;;;8.88;3.53;;;;;;;33.20;43.92;99542.25;12213054;19;20049;-84
2023/08/24 11:29:38;;;;;;;5.53;3.22;;;;;;;33.47;43.95;99536.91;12193646;19;20432;-86
2023/08/24 11:33:40;;;;;;;;;;;;;;;33.79;41.74;99518.84;12216915;19;20006;-84
2023/08/24 11:37:42;;;;;;;5.18;3.17;;;;;;;34.00;39.99;99513.06;12220550;19;19919;-84
2023/08/24 11:41:44;;;;;;;6.22;3.50;;;;;;;34.56;39.86;99503.75;12200179;19;20401;-85
2023/08/24 11:45:46;;;;;;;6.75;5.15;;;;;;;34.72;40.03;99492.59;12212530;19;20359;-85
2023/08/24 11:49:48;;;;;;;4.13;3.40;;;;;;;34.47;39.57;99493.56;12217577;19;20011;-84
2023/08/24 11:53:50;;;;;;;6.18;3.40;;;;;;;34.52;39.84;99488.66;12200023;19;20495;-84
2023/08/24 11:57:53;;;;;;;4.60;3.60;;;;;;;34.66;39.70;99486.50;12223631;19;20011;-85
2023/08/24 12:01:54;;;;;;;5.60;3.35;;;;;;;34.92;38.91;99475.63;12227301;19;20032;-84
2023/08/24 12:06:11;;;;;;;6.93;3.75;;;;;;;34.85;38.21;99479.38;12199391;19;20023;-83
2023/08/24 12:10:13;;;;;;;5.00;3.60;;;;;;;34.75;38.75;99473.78;12223137;19;20027;-84
2023/08/24 12:14:17;;;;;;;6.80;3.53;;;;;;;34.67;39.86;99470.16;12203579;19;20010;-83
2023/08/24 12:18:19;;;;;;;5.68;3.33;;;;;;;34.71;41.46;99476.66;12225743;19;20047;-85
2023/08/24 12:22:21;;;;;;;7.63;4.07;;;;;;;34.76;40.84;99461.88;12225996;19;20011;-84
2023/08/24 12:26:23;;;;;;;5.35;3.25;;;;;;;34.75;39.77;99453.75;12197621;19;20117;-83
2023/08/24 12:30:25;;;;;;;7.53;3.80;;;;;;;34.96;40.50;99450.66;12221020;19;20018;-83
2023/08/24 12:34:27;;;;;;;5.28;3.65;;;;;;;35.05;40.07;99433.03;12214493;19;20650;-84
2023/08/24 12:38:29;;;;;;;4.43;3.20;;;;;;;35.08;41.49;99426.44;12195333;19;20038;-84
2023/08/24 12:42:31;;;;;;;7.88;3.58;;;;;;;35.10;40.16;99412.50;12215233;19;20017;-85
2023/08/24 12:46:37;;;;;;;6.03;3.53;;;;;;;35.08;40.12;99415.78;12216391;19;20010;-84
2023/08/24 12:50:39;;;;;;;6.47;3.72;;;;;;;35.12;41.02;99418.63;12202406;19;20014;-85
2023/08/24 12:54:41;;;;;;;8.45;3.55;;;;;;;35.13;41.23;99414.50;12222220;19;20112;-85
2023/08/24 12:58:43;;;;;;;5.70;3.85;;;;;;;35.11;39.53;99432.13;12221799;19;20014;-85
2023/08/24 13:02:44;;;;;;;4.88;3.42;;;;;;;35.15;39.11;99434.94;12201324;19;20011;-84
2023/08/24 13:06:46;;;;;;;6.20;3.50;;;;;;;35.20;42.23;99434.47;12220144;19;20480;-85
2023/08/24 13:10:50;;;;;;;8.10;3.90;;;;;;;35.08;41.57;99438.72;12222914;19;20541;-84
2023/08/24 13:14:52;;;;;;;5.97;3.78;;;;;;;34.94;40.77;99425.31;12197643;19;20026;-84
2023/08/24 13:18:54;;;;;;;6.03;3.80;;;;;;;34.90;43.62;99415.97;12220049;19;19999;-86
2023/08/24 13:22:56;;;;;;;5.05;3.85;;;;;;;34.86;44.93;99425.81;12218025;19;20462;-85
2023/08/24 13:26:58;;;;;;;12.45;4.00;;;;;;;34.75;44.12;99425.13;12199477;19;20494;-85
2023/08/24 13:31:00;;;;;;;8.57;3.80;;;;;;;34.69;46.29;99422.72;12220058;19;20064;-86
2023/08/24 13:35:03;;;;;;;10.27;4.05;;;;;;;34.24;46.36;99424.72;12220545;19;20021;-84
2023/08/24 13:39:04;;;;;;;6.97;4.20;;;;;;;33.85;46.83;99434.31;12224430;19;20019;-85
2023/08/24 13:43:06;;;;;;;6.32;4.28;;;;;;;33.30;48.26;99441.47;12223520;19;20029;-85
2023/08/24 13:47:08;;;;;;;;;;;;;;;33.03;47.38;99440.34;12199020;19;20018;-85
2023/08/24 13:51:11;;;;;;;4.88;3.85;;;;;;;33.17;47.77;99439.47;12221145;19;19921;-84
2023/08/24 13:55:13;;;;;;;9.02;3.95;;;;;;;33.96;46.39;99432.19;12224055;19;20021;-85
2023/08/24 13:59:15;;;;;;;6.00;3.88;;;;;;;34.79;42.14;99441.00;12205230;19;20010;-85
2023/08/24 14:03:17;;;;;;;7.35;4.03;;;;;;;34.94;40.74;99461.72;12217144;19;20076;-84
2023/08/24 14:07:19;;;;;;;6.00;4.53;;;;;;;34.65;41.44;99456.25;12220832;19;20011;-83
2023/08/24 14:11:21;;;;;;;4.80;4.30;;;;;;;33.92;41.42;99442.84;12197316;19;20031;-86
2023/08/24 14:15:23;;;;;;;6.38;4.22;;;;;;;33.25;43.04;99443.94;12219503;19;20010;-84
2023/08/24 14:19:25;;;;;;;7.15;4.05;;;;;;;32.98;42.99;99437.88;12236972;19;20003;-85
2023/08/24 14:23:27;;;;;;;8.02;4.30;;;;;;;32.93;44.17;99444.81;12248321;19;20017;-86
2023/08/24 14:27:29;;;;;;;;;;;;;;;32.71;46.24;99449.72;12268049;19;20010;-84
2023/08/24 14:31:30;;;;;;;6.65;3.65;;;;;;;32.27;48.72;99447.25;12265381;19;19921;-86
2023/08/24 14:35:33;;;;;;;5.85;4.13;;;;;;;31.72;50.81;99474.78;12219991;19;20007;-83
2023/08/24 14:39:34;;;;;;;4.05;3.65;;;;;;;31.21;50.55;99521.25;12225172;19;20006;-84
2023/08/24 14:43:37;;;;;;;9.52;3.90;;;;;;;30.85;50.68;99549.44;12223140;19;20573;-85
2023/08/24 14:47:39;;;;;;;7.10;4.43;;;;;;;30.53;52.29;99576.75;12201231;19;20082;-84
2023/08/24 14:51:40;;;;;;;;;;;;;;;30.24;52.54;99596.31;12224586;19;20030;-84
2023/08/24 14:55:42;;;;;;;5.73;4.03;;;;;;;30.04;54.31;99609.81;12223462;19;19915;-84
2023/08/24 14:59:44;;;;;;;4.50;3.75;;;;;;;29.74;57.13;99613.47;12203740;19;20512;-84
2023/08/24 15:03:46;;;;;;;7.57;4.15;;;;;;;29.42;61.16;99595.13;12220749;19;20038;-84
2023/08/24 15:07:49;;;;;;;5.93;4.70;;;;;;;29.03;66.31;99564.13;12223223;19;20803;-84
2023/08/24 15:11:52;;;;;;;10.30;5.28;;;;;;;28.60;71.83;99479.16;12201406;19;20011;-83
2023/08/24 15:15:56;;;;;;;10.05;6.00;;;;;;;28.09;81.33;99360.47;12222541;19;20014;-83
2023/08/24 15:19:58;;;;;;;8.73;6.13;;;;;;;27.56;88.06;99193.34;12228964;19;20015;-84
2023/08/24 15:24:00;;;;;;;7.30;5.57;;;;;;;26.77;97.25;99138.19;12205958;19;20002;-83
2023/08/24 15:28:02;;;;;;;8.68;6.38;;;;;;;26.49;93.70;99137.59;12230053;19;20094;-82
2023/08/24 15:32:04;;;;;;;7.78;5.88;;;;;;;26.34;92.89;99176.84;12206184;19;20043;-84
2023/08/24 15:36:06;;;;;;;;;;;;;;;26.40;92.98;99241.53;12221185;19;20025;-84
2023/08/24 15:40:10;;;;;;;6.32;5.72;;;;;;;26.51;93.09;99259.56;12225852;19;19915;-85
2023/08/24 15:44:12;;;;;;;9.50;5.60;;;;;;;26.58;92.51;99256.88;12205723;19;20002;-84
2023/08/24 15:48:14;;;;;;;10.25;7.78;;;;;;;26.74;92.69;99270.94;12225480;19;20011;-84
2023/08/24 15:52:15;;;;;;;11.70;6.82;;;;;;;26.84;97.08;99283.69;12225655;19;20151;-84
2023/08/24 15:56:17;;;;;;;9.27;6.10;;;;;;;26.77;100.00;99271.03;12200509;19;20010;-84
2023/08/24 16:00:19;;;;;;;11.07;6.15;;;;;;;26.68;100.00;99270.44;12227386;19;20102;-83
2023/08/24 16:04:21;;;;;;;10.15;6.07;;;;;;;26.61;100.00;99269.47;12228524;19;20011;-84
2023/08/24 16:08:23;;;;;;;10.95;7.05;;;;;;;26.56;100.00;99273.38;12203789;19;20011;-84
2023/08/24 16:12:24;;;;;;;10.07;6.78;;;;;;;26.58;100.00;99305.72;12222718;19;20395;-84
2023/08/24 16:16:28;;;;;;;9.43;6.60;;;;;;;26.73;100.00;99334.31;12221283;19;20015;-84
2023/08/24 16:20:31;;;;;;;9.57;5.60;;;;;;;26.97;99.40;99353.00;12202782;19;20100;-84
2023/08/24 16:24:33;;;;;;;8.98;6.15;;;;;;;27.05;96.94;99354.81;12221781;19;20010;-84
2023/08/24 16:28:34;;;;;;;11.90;6.05;;;;;;;27.09;95.78;99358.50;12223641;19;20257;-84
2023/08/24 16:32:36;;;;;;;7.43;5.82;;;;;;;27.03;95.13;99365.66;12200479;19;20067;-84
2023/08/24 16:36:40;;;;;;;10.15;5.38;;;;;;;27.11;92.38;99360.97;12221436;19;20039;-84
2023/08/24 16:40:42;;;;;;;8.50;5.32;;;;;;;27.15;90.79;99374.03;12226090;19;20023;-84
2023/08/24 16:44:46;;;;;;;9.63;5.18;;;;;;;27.12;88.66;99380.41;12200894;19;20014;-85
2023/08/24 16:48:47;;;;;;;6.72;4.88;;;;;;;27.08;89.73;99398.50;12221868;19;20007;-84
2023/08/24 16:52:49;;;;;;;7.97;5.60;;;;;;;27.04;91.11;99441.66;12223020;19;20007;-83
2023/08/24 16:56:51;;;;;;;13.77;7.63;;;;;;;26.80;91.43;99389.00;12193371;19;19998;-84
2023/08/24 17:00:52;;;;;;;14.18;7.25;;;;;;;26.64;95.74;99336.53;12222622;19;20022;-84
2023/08/24 17:04:54;;;;;;;11.85;8.23;;;;;;;26.31;100.00;99313.16;12239150;19;20017;-84
2023/08/24 17:08:56;;;;;;;14.83;7.67;;;;;;;25.92;100.00;99341.25;12215834;19;20022;-84
2023/08/24 17:12:59;;;;;;;13.05;8.98;;;;;;;25.60;100.00;99368.59;12238206;19;20255;-84
2023/08/24 17:17:01;;;;;;;12.18;7.93;;;;;;;25.34;100.00;99394.47;12235203;19;20020;-84
2023/08/24 17:21:04;;;;;;;16.98;8.95;;;;;;;25.14;100.00;99434.97;12218404;19;20007;-84
2023/08/24 17:25:06;;;;;;;12.10;9.07;;;;;;;24.95;100.00;99501.19;12234575;19;20014;-84
2023/08/24 17:29:08;;;;;;;;;;;;;;;24.79;100.00;99508.75;12214425;19;20576;-84
2023/08/24 17:33:11;;;;;;;17.02;8.88;;;;;;;24.67;100.00;99621.44;12244501;19;19957;-83
2023/08/24 17:37:13;;;;;;;15.35;9.05;;;;;;;24.37;100.00;99683.50;12242989;19;20481;-84
2023/08/24 17:41:15;;;;;;;12.60;9.43;;;;;;;23.87;100.00;99684.41;12216431;19;20021;-82
2023/08/24 17:45:21;;;;;;;15.53;10.33;;;;;;;23.43;100.00;99603.09;12226214;19;20299;-83
2023/08/24 17:49:23;;;;;;;18.02;12.23;;;;;;;23.15;100.00;99560.63;12225013;19;20251;-83
2023/08/24 17:53:29;;;;;;;21.67;13.07;;;;;;;22.99;100.00;99497.72;12209057;19;20014;-84
2023/08/24 17:57:32;;;;;;;18.77;12.65;;;;;;;22.85;100.00;99460.63;12224150;19;20011;-83
2023/08/24 18:01:33;;;;;;;18.10;11.37;;;;;;;22.66;100.00;99435.78;12224194;19;20489;-83
2023/08/24 18:05:35;;;;;;;20.23;13.23;;;;;;;22.55;100.00;99401.66;12191815;19;20734;-83
2023/08/24 18:09:37;;;;;;;20.52;13.57;;;;;;;22.41;100.00;99378.63;12213338;19;20066;-83
2023/08/24 18:13:39;;;;;;;22.48;14.93;;;;;;;22.30;100.00;99345.31;12218263;19;20003;-83
2023/08/24 18:17:40;;;;;;;20.37;15.53;;;;;;;22.27;100.00;99292.69;12199384;19;20066;-82
2023/08/24 18:21:42;;;;;;;15.17;12.10;;;;;;;22.21;100.00;99263.16;12214458;19;20006;-82
2023/08/24 18:25:44;;;;;;;20.88;13.30;;;;;;;22.09;100.00;99243.41;12212940;19;20083;-82
2023/08/24 18:29:45;;;;;;;19.38;14.68;;;;;;;21.98;100.00;99219.72;12193571;19;20068;-82
2023/08/24 18:33:48;;;;;;;17.95;13.90;;;;;;;21.86;100.00;99265.34;12216425;19;20015;-82
2023/08/24 18:37:50;;;;;;;21.17;13.38;;;;;;;21.76;100.00;99263.75;12213469;19;20006;-82
2023/08/24 18:41:52;;;;;;;21.35;15.27;;;;;;;21.69;100.00;99322.34;12197957;19;20011;-82
2023/08/24 18:45:58;;;;;;;21.33;15.25;;;;;;;21.67;100.00;99299.41;12215472;19;20023;-82